createdAt,value
2018-11-02T00:02:11.298Z,12.20
2018-11-02T00:04:40.485Z,12.20
2018-11-02T00:07:09.705Z,12.20
2018-11-02T00:09:38.915Z,12.20
2018-11-02T00:12:08.119Z,12.20
2018-11-02T00:14:37.374Z,12.20
2018-11-02T00:17:06.574Z,12.20
2018-11-02T00:19:36.234Z,12.10
2018-11-02T00:22:06.114Z,12.10
2018-11-02T00:24:35.415Z,12.10
2018-11-02T00:27:04.586Z,12.00
2018-11-02T00:29:33.876Z,11.90
2018-11-02T00:32:03.117Z,11.90
2018-11-02T00:34:32.287Z,11.80
2018-11-02T00:37:01.444Z,11.70
2018-11-02T00:39:30.669Z,11.70
2018-11-02T00:41:59.850Z,11.60
2018-11-02T00:44:29.088Z,11.60
2018-11-02T00:46:58.271Z,11.60
2018-11-02T00:49:27.505Z,11.50
2018-11-02T00:51:56.693Z,11.50
2018-11-02T00:54:25.949Z,11.50
2018-11-02T00:56:55.179Z,11.60
2018-11-02T00:59:24.420Z,11.60
2018-11-02T01:01:53.603Z,11.60
2018-11-02T01:04:22.839Z,11.60
2018-11-02T01:06:52.005Z,11.70
2018-11-02T01:09:21.206Z,11.60
2018-11-02T01:11:50.403Z,11.60
2018-11-02T01:14:19.614Z,11.60
2018-11-02T01:16:48.901Z,11.50
2018-11-02T01:19:18.064Z,11.50
2018-11-02T01:21:47.256Z,11.40
2018-11-02T01:24:16.459Z,11.40
2018-11-02T01:26:45.658Z,11.30
2018-11-02T01:29:14.884Z,11.30
2018-11-02T01:31:44.080Z,11.30
2018-11-02T01:34:13.322Z,11.30
2018-11-02T01:36:42.490Z,11.30
2018-11-02T01:39:11.679Z,11.30
2018-11-02T01:41:40.903Z,11.30
2018-11-02T01:44:10.132Z,11.20
2018-11-02T01:46:39.295Z,11.20
2018-11-02T01:49:08.832Z,11.10
2018-11-02T01:51:38.020Z,11.00
2018-11-02T01:54:07.253Z,11.00
2018-11-02T01:56:36.492Z,11.00
2018-11-02T01:59:06.152Z,10.90
2018-11-02T02:01:35.355Z,10.80
2018-11-02T02:04:04.595Z,10.80
2018-11-02T02:06:33.803Z,10.80
2018-11-02T02:09:03.058Z,10.70
2018-11-02T02:11:32.250Z,10.70
2018-11-02T02:14:01.464Z,10.70
2018-11-02T02:16:30.673Z,10.70
2018-11-02T02:18:59.839Z,10.80
2018-11-02T02:21:29.025Z,10.80
2018-11-02T02:23:58.264Z,10.90
2018-11-02T02:26:27.455Z,11.00
2018-11-02T02:28:56.628Z,11.00
2018-11-02T02:31:25.959Z,11.10
2018-11-02T02:33:55.135Z,11.10
2018-11-02T02:36:24.396Z,11.20
2018-11-02T02:38:53.608Z,11.20
2018-11-02T02:41:22.827Z,11.20
2018-11-02T02:43:52.001Z,11.20
2018-11-02T02:46:21.266Z,11.20
2018-11-02T02:48:50.452Z,11.10
2018-11-02T02:51:19.948Z,11.10
2018-11-02T02:53:49.117Z,11.10
2018-11-02T02:56:18.327Z,11.10
2018-11-02T02:58:47.511Z,11.10
2018-11-02T03:01:16.719Z,11.20
2018-11-02T03:03:45.895Z,11.20
2018-11-02T03:06:15.116Z,11.20
2018-11-02T03:08:44.296Z,11.20
2018-11-02T03:11:13.635Z,11.30
2018-11-02T03:13:42.801Z,11.30
2018-11-02T03:16:12.028Z,11.30
2018-11-02T03:18:41.487Z,11.30
2018-11-02T03:21:10.637Z,11.30
2018-11-02T03:23:39.852Z,11.40
2018-11-02T03:26:09.051Z,11.40
2018-11-02T03:28:38.223Z,11.30
2018-11-02T03:31:07.419Z,11.30
2018-11-02T03:33:36.597Z,11.20
2018-11-02T03:36:05.796Z,11.20
2018-11-02T03:38:34.987Z,11.20
2018-11-02T03:41:04.251Z,11.20
2018-11-02T03:43:33.427Z,11.20
2018-11-02T03:46:02.673Z,11.20
2018-11-02T03:48:31.847Z,11.20
2018-11-02T03:51:01.061Z,11.20
2018-11-02T03:53:30.254Z,11.30
2018-11-02T03:55:59.851Z,11.30
2018-11-02T03:58:29.028Z,11.30
2018-11-02T04:00:58.246Z,11.30
2018-11-02T04:03:27.448Z,11.30
2018-11-02T04:05:56.651Z,11.30
2018-11-02T04:08:25.793Z,11.30
2018-11-02T04:10:55.033Z,11.30
2018-11-02T04:13:24.384Z,11.20
2018-11-02T04:15:53.584Z,11.20
2018-11-02T04:18:22.746Z,11.20
2018-11-02T04:20:51.985Z,11.10
2018-11-02T04:23:21.164Z,11.00
2018-11-02T04:25:50.388Z,10.90
2018-11-02T04:28:21.168Z,10.90
2018-11-02T04:30:50.446Z,10.80
2018-11-02T04:33:19.651Z,10.70
2018-11-02T04:35:48.868Z,10.70
2018-11-02T04:38:18.040Z,10.70
2018-11-02T04:40:47.292Z,10.70
2018-11-02T04:43:16.594Z,10.70
2018-11-02T04:45:45.846Z,10.60
2018-11-02T04:48:15.016Z,10.50
2018-11-02T04:50:44.281Z,10.50
2018-11-02T04:53:13.482Z,10.40
2018-11-02T04:55:42.705Z,10.40
2018-11-02T04:58:11.872Z,10.40
2018-11-02T05:00:41.050Z,10.30
2018-11-02T05:03:10.263Z,10.30
2018-11-02T05:05:39.442Z,10.30
2018-11-02T05:08:08.661Z,10.30
2018-11-02T05:10:37.863Z,10.30
2018-11-02T05:13:07.069Z,10.20
2018-11-02T05:15:36.242Z,10.20
2018-11-02T05:18:05.427Z,10.20
2018-11-02T05:20:34.631Z,10.20
2018-11-02T05:23:03.869Z,10.10
2018-11-02T05:25:33.016Z,10.10
2018-11-02T05:28:02.235Z,10.10
2018-11-02T05:30:31.463Z,10.00
2018-11-02T05:33:00.667Z,10.00
2018-11-02T05:35:29.859Z,10.00
2018-11-02T05:37:59.069Z,9.90
2018-11-02T05:40:28.250Z,9.80
2018-11-02T05:42:57.482Z,9.80
2018-11-02T05:45:26.699Z,9.80
2018-11-02T05:47:55.904Z,9.80
2018-11-02T05:50:25.076Z,9.70
2018-11-02T05:52:54.273Z,9.80
2018-11-02T05:55:23.435Z,9.80
2018-11-02T05:57:52.727Z,9.80
2018-11-02T06:00:21.948Z,9.80
2018-11-02T06:02:51.227Z,9.70
2018-11-02T06:05:20.397Z,9.70
2018-11-02T06:07:49.590Z,9.70
2018-11-02T06:10:18.858Z,9.60
2018-11-02T06:12:48.089Z,9.50
2018-11-02T06:15:17.254Z,9.50
2018-11-02T06:17:46.445Z,9.40
2018-11-02T06:20:15.584Z,9.40
2018-11-02T06:22:44.813Z,9.30
2018-11-02T06:25:14.025Z,9.20
2018-11-02T06:27:43.226Z,9.20
2018-11-02T06:30:12.393Z,9.20
2018-11-02T06:32:41.765Z,9.20
2018-11-02T06:35:10.894Z,9.10
2018-11-02T06:37:40.123Z,9.10
2018-11-02T06:40:09.475Z,9.10
2018-11-02T06:42:38.683Z,9.10
2018-11-02T06:45:09.471Z,9.10
2018-11-02T06:47:38.792Z,9.10
2018-11-02T06:50:08.365Z,9.20
2018-11-02T06:52:37.608Z,9.20
2018-11-02T06:55:07.895Z,9.20
2018-11-02T06:57:37.107Z,9.20
2018-11-02T07:00:10.882Z,9.30
2018-11-02T07:02:39.985Z,9.30
2018-11-02T07:05:09.437Z,9.30
2018-11-02T07:07:39.052Z,9.40
2018-11-02T07:10:09.244Z,9.40
2018-11-02T07:12:38.444Z,9.40
2018-11-02T07:15:08.017Z,9.40
2018-11-02T07:17:37.259Z,9.50
2018-11-02T07:20:07.626Z,9.50
2018-11-02T07:22:36.867Z,9.50
2018-11-02T07:25:07.290Z,9.60
2018-11-02T07:27:36.405Z,9.60
2018-11-02T07:30:07.042Z,9.60
2018-11-02T07:32:36.258Z,9.70
2018-11-02T07:35:06.569Z,9.70
2018-11-02T07:37:35.823Z,9.70
2018-11-02T07:40:05.532Z,9.80
2018-11-02T07:42:34.804Z,9.80
2018-11-02T07:45:04.604Z,9.80
2018-11-02T07:47:33.910Z,9.80
2018-11-02T07:50:03.729Z,9.80
2018-11-02T07:52:32.954Z,9.80
2018-11-02T07:55:02.751Z,9.80
2018-11-02T07:57:32.009Z,9.80
2018-11-02T08:00:01.244Z,9.90
2018-11-02T08:02:30.452Z,9.90
2018-11-02T08:04:59.650Z,9.90
2018-11-02T08:07:28.866Z,9.90
2018-11-02T08:09:58.051Z,9.90
2018-11-02T08:12:27.247Z,9.90
2018-11-02T08:14:56.423Z,9.90
2018-11-02T08:17:25.652Z,10.00
2018-11-02T08:19:54.870Z,9.90
2018-11-02T08:22:24.073Z,9.90
2018-11-02T08:24:53.319Z,9.90
2018-11-02T08:27:22.519Z,9.90
2018-11-02T08:29:51.688Z,9.90
2018-11-02T08:32:20.896Z,9.90
2018-11-02T08:34:50.073Z,9.90
2018-11-02T08:37:19.275Z,9.90
2018-11-02T08:39:48.454Z,9.90
2018-11-02T08:42:17.662Z,9.90
2018-11-02T08:44:46.824Z,9.90
2018-11-02T08:47:16.026Z,9.90
2018-11-02T08:49:45.209Z,9.90
2018-11-02T08:52:14.490Z,9.90
2018-11-02T08:54:43.667Z,10.00
2018-11-02T08:57:12.840Z,10.00
2018-11-02T08:59:42.161Z,10.00
2018-11-02T09:02:11.413Z,10.00
2018-11-02T09:04:40.573Z,10.00
2018-11-02T09:07:09.951Z,10.10
2018-11-02T09:09:39.136Z,10.10
2018-11-02T09:12:08.615Z,10.20
2018-11-02T09:14:37.825Z,10.20
2018-11-02T09:17:08.036Z,10.30
2018-11-02T09:19:37.101Z,10.30
2018-11-02T09:22:06.311Z,10.30
2018-11-02T09:24:35.635Z,10.40
2018-11-02T09:27:04.873Z,10.50
2018-11-02T09:29:34.074Z,10.50
2018-11-02T09:32:03.277Z,10.60
2018-11-02T09:34:32.434Z,10.60
2018-11-02T09:37:01.653Z,10.70
2018-11-02T09:39:30.803Z,10.70
2018-11-02T09:42:00.017Z,10.80
2018-11-02T09:44:29.374Z,10.80
2018-11-02T09:46:58.598Z,10.80
2018-11-02T09:49:27.780Z,10.90
2018-11-02T09:51:57.062Z,10.90
2018-11-02T09:54:26.267Z,11.00
2018-11-02T09:56:55.517Z,11.00
2018-11-02T09:59:24.730Z,11.10
2018-11-02T10:01:53.910Z,11.20
2018-11-02T10:04:23.076Z,11.20
2018-11-02T10:06:52.344Z,11.20
2018-11-02T10:09:21.674Z,11.30
2018-11-02T10:11:50.902Z,11.30
2018-11-02T10:14:20.094Z,11.40
2018-11-02T10:16:49.339Z,11.40
2018-11-02T10:19:18.553Z,11.50
2018-11-02T10:21:47.683Z,11.50
2018-11-02T10:24:16.930Z,11.50
2018-11-02T10:26:46.207Z,11.60
2018-11-02T10:29:18.379Z,11.60
2018-11-02T10:31:47.612Z,11.70
2018-11-02T10:34:16.842Z,11.70
2018-11-02T10:36:46.087Z,11.70
2018-11-02T10:39:15.579Z,11.80
2018-11-02T10:41:48.369Z,11.80
2018-11-02T10:44:20.170Z,11.90
2018-11-02T10:46:49.544Z,11.90
2018-11-02T10:49:18.651Z,12.00
2018-11-02T10:51:47.890Z,12.00
2018-11-02T10:54:17.195Z,12.10
2018-11-02T10:56:46.240Z,12.10
2018-11-02T10:59:15.528Z,12.20
2018-11-02T11:01:51.484Z,12.20
2018-11-02T11:04:21.005Z,12.30
2018-11-02T11:06:50.287Z,12.30
2018-11-02T11:09:19.547Z,12.40
2018-11-02T11:11:48.928Z,12.40
2018-11-02T11:14:17.984Z,12.50
2018-11-02T11:16:47.190Z,12.50
2018-11-02T11:19:16.425Z,12.60
2018-11-02T11:21:45.585Z,12.60
2018-11-02T11:24:14.812Z,12.70
2018-11-02T11:26:43.991Z,12.80
2018-11-02T11:29:13.351Z,12.80
2018-11-02T11:31:42.546Z,12.90
2018-11-02T11:34:11.767Z,13.00
2018-11-02T11:36:41.011Z,13.00
2018-11-02T11:39:13.069Z,13.10
2018-11-02T11:41:42.257Z,13.20
2018-11-02T11:44:11.681Z,13.30
2018-11-02T11:46:40.910Z,13.30
2018-11-02T11:49:10.790Z,13.40
2018-11-02T11:51:39.952Z,13.50
2018-11-02T11:54:09.251Z,13.60
2018-11-02T11:56:38.433Z,13.60
2018-11-02T11:59:07.685Z,13.70
2018-11-02T12:01:36.878Z,13.80
2018-11-02T12:04:06.568Z,13.90
2018-11-02T12:06:35.824Z,14.00
2018-11-02T12:09:06.047Z,14.20
2018-11-02T12:11:35.266Z,14.30
2018-11-02T12:14:04.496Z,14.40
2018-11-02T12:16:33.699Z,14.50
2018-11-02T12:19:02.963Z,14.60
2018-11-02T12:21:32.246Z,14.70
2018-11-02T12:24:01.424Z,14.80
2018-11-02T12:26:30.625Z,14.80
2018-11-02T12:28:59.834Z,14.90
2018-11-02T12:31:29.020Z,14.90
2018-11-02T12:33:58.260Z,14.90
2018-11-02T12:36:27.453Z,15.00
2018-11-02T12:38:56.770Z,15.00
2018-11-02T12:41:25.973Z,15.10
2018-11-02T12:43:55.301Z,15.10
2018-11-02T12:46:24.523Z,15.10
2018-11-02T12:48:53.980Z,15.20
2018-11-02T12:51:22.970Z,15.20
2018-11-02T12:53:52.198Z,15.20
2018-11-02T12:56:21.378Z,15.20
2018-11-02T12:58:50.636Z,15.20
2018-11-02T13:01:19.825Z,15.20
2018-11-02T13:03:49.038Z,15.30
2018-11-02T13:06:18.216Z,15.30
2018-11-02T13:08:47.520Z,15.30
2018-11-02T13:11:16.786Z,15.30
2018-11-02T13:13:46.025Z,15.30
2018-11-02T13:16:15.505Z,15.40
2018-11-02T13:18:44.627Z,15.30
2018-11-02T13:21:13.850Z,15.40
2018-11-02T13:23:43.064Z,15.40
2018-11-02T13:26:12.545Z,15.50
2018-11-02T13:28:43.431Z,15.50
2018-11-02T13:31:12.709Z,15.50
2018-11-02T13:33:41.899Z,15.60
2018-11-02T13:36:11.181Z,15.60
2018-11-02T13:38:40.339Z,15.60
2018-11-02T13:41:09.589Z,15.60
2018-11-02T13:43:38.798Z,15.40
2018-11-02T13:46:07.969Z,15.60
2018-11-02T13:48:37.175Z,15.60
2018-11-02T13:51:06.575Z,15.60
2018-11-02T13:53:35.827Z,15.60
2018-11-02T13:56:04.914Z,15.60
2018-11-02T13:58:34.097Z,15.60
2018-11-02T14:01:03.363Z,15.50
2018-11-02T14:03:32.572Z,15.50
2018-11-02T14:06:01.801Z,15.50
2018-11-02T14:08:31.028Z,15.40
2018-11-02T14:11:00.463Z,15.40
2018-11-02T14:13:29.634Z,15.40
2018-11-02T14:15:58.842Z,15.30
2018-11-02T14:18:28.040Z,15.30
2018-11-02T14:20:57.273Z,15.30
2018-11-02T14:23:26.450Z,15.30
2018-11-02T14:25:55.669Z,15.20
2018-11-02T14:28:24.842Z,15.20
2018-11-02T14:30:54.189Z,15.20
2018-11-02T14:33:23.364Z,15.10
2018-11-02T14:35:52.569Z,15.10
2018-11-02T14:38:21.750Z,15.10
2018-11-02T14:40:51.094Z,15.10
2018-11-02T14:43:20.171Z,15.10
2018-11-02T14:45:49.399Z,15.00
2018-11-02T14:48:18.611Z,15.00
2018-11-02T14:50:47.821Z,15.00
2018-11-02T14:53:17.053Z,14.90
2018-11-02T14:55:46.288Z,14.90
2018-11-02T14:58:15.457Z,14.90
2018-11-02T15:00:44.645Z,14.90
2018-11-02T15:03:13.888Z,14.80
2018-11-02T15:05:43.130Z,14.80
2018-11-02T15:08:12.398Z,14.80
2018-11-02T15:10:41.572Z,14.80
2018-11-02T15:13:10.772Z,14.80
2018-11-02T15:15:40.017Z,14.80
2018-11-02T15:18:09.238Z,14.70
2018-11-02T15:20:38.461Z,14.70
2018-11-02T15:23:07.723Z,14.70
2018-11-02T15:25:36.963Z,14.70
2018-11-02T15:28:06.195Z,14.70
2018-11-02T15:30:35.434Z,14.70
2018-11-02T15:33:04.730Z,14.70
2018-11-02T15:35:33.966Z,14.70
2018-11-02T15:38:03.135Z,14.70
2018-11-02T15:40:32.352Z,14.60
2018-11-02T15:43:01.549Z,14.60
2018-11-02T15:45:30.766Z,14.60
2018-11-02T15:48:00.023Z,14.60
2018-11-02T15:50:29.222Z,14.50
2018-11-02T15:52:58.435Z,14.50
2018-11-02T15:55:27.624Z,14.40
2018-11-02T15:57:56.804Z,14.40
2018-11-02T16:00:26.001Z,14.30
2018-11-02T16:02:55.270Z,14.30
2018-11-02T16:05:24.430Z,14.20
2018-11-02T16:07:53.689Z,14.20
2018-11-02T16:10:22.871Z,14.10
2018-11-02T16:12:52.136Z,14.00
2018-11-02T16:15:21.510Z,14.00
2018-11-02T16:17:50.776Z,14.00
2018-11-02T16:20:20.054Z,13.90
2018-11-02T16:22:49.119Z,13.90
2018-11-02T16:25:18.301Z,13.80
2018-11-02T16:27:47.513Z,13.80
2018-11-02T16:30:16.859Z,13.70
2018-11-02T16:32:46.080Z,13.70
2018-11-02T16:35:15.351Z,13.70
2018-11-02T16:37:44.585Z,13.60
2018-11-02T16:40:15.353Z,13.60
2018-11-02T16:42:45.190Z,13.60
2018-11-02T16:45:15.155Z,13.60
2018-11-02T16:47:44.830Z,13.60
2018-11-02T16:50:15.114Z,13.50
2018-11-02T16:52:44.689Z,13.50
2018-11-02T16:55:13.860Z,13.50
2018-11-02T16:57:43.267Z,13.50
2018-11-02T17:00:16.595Z,13.40
2018-11-02T17:02:46.809Z,13.40
2018-11-02T17:05:16.190Z,13.40
2018-11-02T17:07:45.467Z,13.40
2018-11-02T17:10:15.400Z,13.40
2018-11-02T17:12:45.092Z,13.40
2018-11-02T17:15:14.708Z,13.40
2018-11-02T17:17:43.921Z,13.40
2018-11-02T17:20:14.440Z,13.40
2018-11-02T17:22:43.673Z,13.30
2018-11-02T17:25:13.402Z,13.40
2018-11-02T17:27:42.638Z,13.40
2018-11-02T17:30:15.885Z,13.30
2018-11-02T17:32:45.198Z,13.40
2018-11-02T17:35:14.402Z,13.40
2018-11-02T17:37:43.659Z,13.40
2018-11-02T17:40:14.018Z,13.40
2018-11-02T17:42:43.715Z,13.40
2018-11-02T17:45:12.991Z,13.30
2018-11-02T17:47:43.014Z,13.40
2018-11-02T17:50:13.283Z,13.30
2018-11-02T17:52:42.680Z,13.40
2018-11-02T17:55:11.869Z,13.40
2018-11-02T17:57:41.111Z,13.30
2018-11-02T18:00:11.826Z,13.30
2018-11-02T18:02:41.070Z,13.30
2018-11-02T18:05:10.928Z,13.30
2018-11-02T18:07:40.136Z,13.30
2018-11-02T18:10:11.384Z,13.30
2018-11-02T18:12:40.853Z,13.30
2018-11-02T18:15:10.697Z,13.30
2018-11-02T18:17:39.927Z,13.30
2018-11-02T18:20:11.388Z,13.20
2018-11-02T18:22:40.601Z,13.30
2018-11-02T18:25:10.295Z,13.20
2018-11-02T18:27:39.618Z,13.20
2018-11-02T18:30:10.729Z,13.20
2018-11-02T18:32:40.036Z,13.20
2018-11-02T18:35:09.769Z,13.20
2018-11-02T18:37:39.014Z,13.20
2018-11-02T18:40:09.946Z,13.20
2018-11-02T18:42:40.252Z,13.20
2018-11-02T18:45:11.335Z,13.20
2018-11-02T18:47:44.621Z,13.20
2018-11-02T18:50:15.450Z,13.20
2018-11-02T18:52:45.023Z,13.20
2018-11-02T18:55:14.203Z,13.20
2018-11-02T18:57:43.467Z,13.20
2018-11-02T19:00:12.969Z,13.20
2018-11-02T19:02:42.409Z,13.20
2018-11-02T19:05:14.507Z,13.20
2018-11-02T19:07:43.797Z,13.20
2018-11-02T19:10:13.224Z,13.20
2018-11-02T19:12:43.016Z,13.20
2018-11-02T19:15:13.794Z,13.10
2018-11-02T19:17:43.181Z,13.10
2018-11-02T19:20:12.767Z,13.10
2018-11-02T19:22:41.937Z,13.20
2018-11-02T19:25:12.546Z,13.10
2018-11-02T19:27:42.048Z,13.20
2018-11-02T19:30:12.469Z,13.20
2018-11-02T19:32:41.837Z,13.20
2018-11-02T19:35:12.013Z,13.20
2018-11-02T19:37:41.171Z,13.20
2018-11-02T19:40:12.379Z,13.10
2018-11-02T19:42:41.667Z,13.20
2018-11-02T19:45:11.504Z,13.10
2018-11-02T19:47:45.932Z,13.20
2018-11-02T19:50:16.612Z,13.10
2018-11-02T19:52:45.845Z,13.10
2018-11-02T19:55:15.408Z,13.10
2018-11-02T19:57:45.099Z,13.10
2018-11-02T20:00:15.610Z,13.10
2018-11-02T20:02:44.916Z,13.10
2018-11-02T20:05:16.441Z,13.10
2018-11-02T20:07:45.773Z,13.10
2018-11-02T20:10:15.971Z,13.10
2018-11-02T20:12:47.058Z,13.10
2018-11-02T20:15:16.805Z,13.10
2018-11-02T20:17:46.021Z,13.10
2018-11-02T20:20:16.192Z,13.10
2018-11-02T20:22:45.410Z,13.10
2018-11-02T20:25:16.003Z,13.00
2018-11-02T20:27:45.368Z,13.00
2018-11-02T20:30:16.061Z,13.00
2018-11-02T20:32:45.356Z,13.00
2018-11-02T20:35:16.955Z,13.00
2018-11-02T20:37:46.171Z,13.00
2018-11-02T20:40:18.156Z,13.00
2018-11-02T20:42:47.628Z,13.00
2018-11-02T20:45:17.265Z,13.00
2018-11-02T20:47:48.231Z,13.00
2018-11-02T20:50:17.849Z,13.00
2018-11-02T20:52:47.228Z,13.00
2018-11-02T20:55:16.860Z,13.00
2018-11-02T20:57:46.088Z,13.00
2018-11-02T21:00:16.690Z,13.00
2018-11-02T21:02:46.173Z,13.00
2018-11-02T21:05:16.460Z,13.00
2018-11-02T21:07:46.226Z,13.00
2018-11-02T21:10:16.441Z,13.00
2018-11-02T21:12:45.650Z,13.00
2018-11-02T21:15:16.268Z,13.00
2018-11-02T21:17:45.460Z,13.00
2018-11-02T21:20:19.799Z,13.00
2018-11-02T21:22:49.021Z,13.00
2018-11-02T21:25:18.239Z,13.00
2018-11-02T21:27:47.863Z,13.00
2018-11-02T21:30:21.581Z,13.00
2018-11-02T21:32:51.455Z,13.00
2018-11-02T21:35:21.305Z,13.00
2018-11-02T21:37:50.740Z,13.00
2018-11-02T21:40:22.136Z,13.00
2018-11-02T21:42:51.320Z,13.00
2018-11-02T21:45:21.575Z,13.00
2018-11-02T21:47:50.808Z,13.00
2018-11-02T21:50:20.148Z,13.00
2018-11-02T21:52:49.343Z,13.00
2018-11-02T21:55:18.604Z,12.90
2018-11-02T21:57:47.795Z,12.90
2018-11-02T22:00:21.272Z,12.90
2018-11-02T22:02:50.499Z,12.90
2018-11-02T22:05:19.727Z,12.90
2018-11-02T22:07:49.766Z,12.80
2018-11-02T22:10:19.156Z,12.80
2018-11-02T22:12:48.359Z,12.80
2018-11-02T22:15:17.578Z,12.80
2018-11-02T22:17:46.829Z,12.80
2018-11-02T22:20:16.528Z,12.80
2018-11-02T22:22:45.785Z,12.80
2018-11-02T22:25:15.638Z,12.80
2018-11-02T22:27:44.856Z,12.80
2018-11-02T22:30:15.361Z,12.80
2018-11-02T22:32:44.551Z,12.80
2018-11-02T22:35:14.495Z,12.80
2018-11-02T22:37:43.961Z,12.90
2018-11-02T22:40:13.903Z,12.80
2018-11-02T22:42:43.705Z,12.80
2018-11-02T22:45:13.997Z,12.80
2018-11-02T22:47:47.400Z,12.80
2018-11-02T22:50:16.599Z,12.80
2018-11-02T22:52:45.820Z,12.80
2018-11-02T22:55:15.025Z,12.80
2018-11-02T22:57:44.290Z,12.80
2018-11-02T23:00:16.658Z,12.80
2018-11-02T23:02:46.726Z,12.80
2018-11-02T23:05:15.913Z,12.80
2018-11-02T23:07:45.433Z,12.80
2018-11-02T23:10:14.637Z,12.80
2018-11-02T23:12:43.867Z,12.80
2018-11-02T23:15:13.394Z,12.70
2018-11-02T23:17:42.637Z,12.70
2018-11-02T23:20:13.737Z,12.70
2018-11-02T23:22:43.103Z,12.70
2018-11-02T23:25:12.755Z,12.70
2018-11-02T23:27:43.420Z,12.70
2018-11-02T23:30:12.715Z,12.60
2018-11-02T23:32:42.013Z,12.70
2018-11-02T23:35:11.211Z,12.60
2018-11-02T23:37:40.555Z,12.60
2018-11-02T23:40:10.730Z,12.60
2018-11-02T23:42:39.978Z,12.60
2018-11-02T23:45:10.251Z,12.60
2018-11-02T23:47:39.885Z,11.90
2018-11-02T23:50:10.287Z,12.60
2018-11-02T23:52:39.507Z,12.60
2018-11-02T23:55:08.895Z,12.60
2018-11-02T23:57:38.316Z,12.60
